createdAt,value
2022-10-05T00:02:41.612Z,26.60
2022-10-05T00:12:49.608Z,25.50
2022-10-05T00:22:59.071Z,27.50
2022-10-05T00:33:04.832Z,21.00
2022-10-05T00:43:31.747Z,29.60
2022-10-05T00:53:44.300Z,27.90
2022-10-05T01:04:02.093Z,23.70
2022-10-05T01:14:16.992Z,20.70
2022-10-05T01:24:42.929Z,22.20
2022-10-05T01:34:57.671Z,23.70
2022-10-05T01:45:12.972Z,22.70
2022-10-05T01:55:26.349Z,25.50
2022-10-05T02:05:40.113Z,33.50
2022-10-05T02:15:52.591Z,21.60
2022-10-05T02:25:59.431Z,18.20
2022-10-05T02:36:14.976Z,14.60
2022-10-05T02:46:34.183Z,17.90
2022-10-05T02:56:48.928Z,15.60
2022-10-05T03:07:05.900Z,26.10
2022-10-05T03:17:17.227Z,14.30
2022-10-05T03:27:34.833Z,27.50
2022-10-05T03:58:04.158Z,12.30
2022-10-05T04:08:19.469Z,10.40
2022-10-05T04:18:31.241Z,12.00
2022-10-05T04:28:55.936Z,14.90
2022-10-05T04:39:17.241Z,10.70
2022-10-05T04:49:41.624Z,13.10
2022-10-05T05:00:02.970Z,15.00
2022-10-05T05:10:33.929Z,20.30
2022-10-05T05:20:55.207Z,15.20
2022-10-05T05:31:11.356Z,12.40
2022-10-05T05:41:24.982Z,9.70
2022-10-05T05:51:36.404Z,8.60
2022-10-05T06:01:48.567Z,16.80
2022-10-05T06:11:58.352Z,12.90
2022-10-05T06:22:08.939Z,12.50
2022-10-05T06:32:26.800Z,7.70
2022-10-05T06:43:02.768Z,10.60
2022-10-05T06:53:22.147Z,6.90
2022-10-05T07:03:41.697Z,10.30
2022-10-05T07:14:04.991Z,8.90
2022-10-05T07:24:23.159Z,10.80
2022-10-05T07:34:40.995Z,7.30
2022-10-05T07:44:54.091Z,7.10
2022-10-05T07:55:07.557Z,7.80
2022-10-05T08:05:18.881Z,7.50
2022-10-05T08:15:28.941Z,4.80
2022-10-05T08:25:46.099Z,7.10
2022-10-05T08:36:00.531Z,3.40
2022-10-05T08:46:37.314Z,5.60
2022-10-05T08:56:52.011Z,5.40
2022-10-05T09:07:09.775Z,6.90
2022-10-05T09:17:39.288Z,6.70
2022-10-05T09:27:53.767Z,7.40
2022-10-05T09:38:28.292Z,4.50
2022-10-05T09:49:04.170Z,4.90
2022-10-05T09:59:37.989Z,5.00
2022-10-05T10:09:58.771Z,5.50
2022-10-05T10:20:22.610Z,4.80
2022-10-05T10:30:55.424Z,6.50
2022-10-05T10:41:33.362Z,2.90
2022-10-05T10:52:12.769Z,2.80
2022-10-05T11:02:30.951Z,5.90
2022-10-05T11:13:03.497Z,5.10
2022-10-05T11:23:29.252Z,5.20
2022-10-05T11:34:10.568Z,5.60
2022-10-05T11:44:55.137Z,4.00
2022-10-05T11:55:13.501Z,3.10
2022-10-05T12:05:24.325Z,6.10
2022-10-05T12:15:36.045Z,3.90
2022-10-05T12:25:46.900Z,3.50
2022-10-05T12:35:58.622Z,2.10
2022-10-05T12:46:17.793Z,3.90
2022-10-05T12:56:37.352Z,3.00
2022-10-05T13:06:52.133Z,5.70
2022-10-05T13:17:06.909Z,6.10
2022-10-05T13:27:19.399Z,3.80
2022-10-05T13:37:32.852Z,2.30
2022-10-05T13:47:47.401Z,1.80
2022-10-05T13:58:05.822Z,3.90
2022-10-05T14:08:18.721Z,6.00
2022-10-05T14:18:29.782Z,6.40
2022-10-05T14:28:39.308Z,5.80
2022-10-05T14:38:57.851Z,4.20
2022-10-05T14:49:22.745Z,9.20
2022-10-05T14:59:40.662Z,6.50
2022-10-05T15:10:00.821Z,7.90
2022-10-05T15:20:17.526Z,5.90
2022-10-05T15:30:23.262Z,15.10
2022-10-05T15:40:35.894Z,10.70
2022-10-05T15:50:55.495Z,7.20
2022-10-05T16:01:08.512Z,4.60
2022-10-05T16:11:22.873Z,5.40
2022-10-05T16:21:41.384Z,6.00
2022-10-05T16:31:58.799Z,5.50
2022-10-05T16:42:16.808Z,7.90
2022-10-05T16:52:25.157Z,11.40
2022-10-05T17:02:45.980Z,11.90
2022-10-05T17:13:03.667Z,5.60
2022-10-05T17:23:29.524Z,9.90
2022-10-05T17:33:56.503Z,10.00
2022-10-05T17:44:27.953Z,6.60
2022-10-05T17:55:12.573Z,12.10
2022-10-05T18:05:29.330Z,13.00
2022-10-05T18:15:48.662Z,10.30
2022-10-05T18:26:01.409Z,13.50
2022-10-05T18:36:21.715Z,11.10
2022-10-05T18:46:39.123Z,11.30
2022-10-05T18:56:50.882Z,15.50
2022-10-05T19:07:08.489Z,11.00
2022-10-05T19:17:26.315Z,14.90
2022-10-05T19:27:43.272Z,12.30
2022-10-05T19:38:03.290Z,8.90
2022-10-05T19:48:23.575Z,15.20
2022-10-05T19:58:31.620Z,19.70
2022-10-05T20:08:43.877Z,10.70
2022-10-05T20:19:09.775Z,9.60
2022-10-05T20:29:15.396Z,8.70
2022-10-05T20:39:22.983Z,8.20
2022-10-05T20:49:31.375Z,13.40
2022-10-05T20:59:38.598Z,8.20
2022-10-05T21:09:47.026Z,12.10
2022-10-05T21:19:53.632Z,11.00
2022-10-05T21:30:01.447Z,6.80
2022-10-05T21:40:08.945Z,9.60
2022-10-05T21:50:15.643Z,11.90
2022-10-05T22:00:22.343Z,8.20
2022-10-05T22:10:29.300Z,10.70
2022-10-05T22:20:36.926Z,12.60
2022-10-05T22:30:43.963Z,6.70
2022-10-05T22:40:49.963Z,8.10
2022-10-05T22:50:55.950Z,7.70
2022-10-05T23:01:05.260Z,6.90
2022-10-05T23:11:14.233Z,8.20
2022-10-05T23:21:21.490Z,8.10
2022-10-05T23:31:30.335Z,10.70
2022-10-05T23:41:35.930Z,8.80
2022-10-05T23:51:42.472Z,10.40
